Time;durP1;ratioP1;P1;durP2;ratioP2;P2;SDS_P1;SDS_P2;PMS_P1;PMS_P2;Temp;Humidity;BMP_temperature;BMP_pressure;BME280_temperature;BME280_humidity;BME280_pressure;Samples;Min_cycle;Max_cycle;Signal;HPM_P1;HPM_P2
2023/01/28 00:00:30;;;;;;;15.73;7.60;;;1.80;80.20;;;;;;5018199;28;20217;-73
2023/01/28 00:02:55;;;;;;;14.07;7.30;;;1.80;80.00;;;;;;5012695;28;20182;-74
2023/01/28 00:05:22;;;;;;;13.43;7.60;;;1.80;80.00;;;;;;5012960;28;20659;-76
2023/01/28 00:07:49;;;;;;;13.73;7.43;;;1.80;80.00;;;;;;5026438;28;20170;-74
2023/01/28 00:10:15;;;;;;;16.52;7.10;;;1.80;80.00;;;;;;5010523;28;20582;-76
2023/01/28 00:12:41;;;;;;;12.93;6.97;;;1.90;79.90;;;;;;5023443;28;20249;-74
2023/01/28 00:15:06;;;;;;;14.40;6.97;;;1.90;79.70;;;;;;5020416;28;20976;-74
2023/01/28 00:17:32;;;;;;;11.67;6.63;;;1.90;79.70;;;;;;5024076;28;20209;-74
2023/01/28 00:19:57;;;;;;;12.50;7.57;;;1.90;79.60;;;;;;5019116;28;20470;-74
2023/01/28 00:22:23;;;;;;;14.90;7.93;;;1.90;79.60;;;;;;5017173;28;20205;-76
2023/01/28 00:24:49;;;;;;;13.00;6.30;;;1.90;79.30;;;;;;5027381;28;20204;-73
2023/01/28 00:27:14;;;;;;;13.20;6.90;;;1.80;79.50;;;;;;5020005;28;20212;-74
2023/01/28 00:29:40;;;;;;;13.43;7.23;;;1.70;79.90;;;;;;5022484;28;20249;-75
2023/01/28 00:32:05;;;;;;;17.50;7.13;;;1.70;80.20;;;;;;5021371;28;20185;-76
2023/01/28 00:34:31;;;;;;;11.23;5.93;;;1.60;80.20;;;;;;5023002;28;20231;-74
2023/01/28 00:36:56;;;;;;;14.70;6.70;;;1.70;80.50;;;;;;5020058;28;20208;-74
2023/01/28 00:39:26;;;;;;;10.03;5.83;;;1.60;80.50;;;;;;5017449;28;20210;-75
2023/01/28 00:41:53;;;;;;;12.32;6.80;;;1.60;80.50;;;;;;5021080;28;20873;-74
2023/01/28 00:44:19;;;;;;;14.20;6.63;;;1.60;80.60;;;;;;5019315;28;20181;-75
2023/01/28 00:46:45;;;;;;;12.73;6.43;;;1.60;80.50;;;;;;5015944;28;20174;-73
2023/01/28 00:49:10;;;;;;;11.30;6.40;;;1.70;80.50;;;;;;5013771;28;20265;-74
2023/01/28 00:51:36;;;;;;;14.13;7.17;;;1.70;80.50;;;;;;5016210;28;20205;-75
2023/01/28 00:54:02;;;;;;;11.80;6.20;;;1.70;80.30;;;;;;5019923;28;20633;-76
2023/01/28 00:56:27;;;;;;;12.23;6.87;;;1.70;80.30;;;;;;5023351;28;20204;-75
2023/01/28 00:58:53;;;;;;;13.03;6.37;;;1.70;80.20;;;;;;5019618;28;20201;-77
2023/01/28 01:01:22;;;;;;;11.73;6.43;;;1.70;80.20;;;;;;5013018;28;20834;-74
2023/01/28 01:03:56;;;;;;;13.75;6.78;;;1.70;80.20;;;;;;5013936;28;20209;-74
2023/01/28 01:06:23;;;;;;;15.82;6.50;;;1.70;80.30;;;;;;5020486;28;20208;-73
2023/01/28 01:08:50;;;;;;;13.00;6.70;;;1.70;80.30;;;;;;5020203;28;20659;-75
2023/01/28 01:11:16;;;;;;;12.10;6.53;;;1.70;80.20;;;;;;5006813;28;20214;-73
2023/01/28 01:13:41;;;;;;;11.50;6.15;;;1.60;80.50;;;;;;5014432;28;20190;-76
2023/01/28 01:16:10;;;;;;;11.70;6.37;;;1.60;80.50;;;;;;5013051;28;20194;-76
2023/01/28 01:18:40;;;;;;;15.25;7.10;;;1.70;80.60;;;;;;5007501;28;20652;-76
2023/01/28 01:21:08;;;;;;;12.57;6.35;;;1.70;80.50;;;;;;5011343;28;20289;-75
2023/01/28 01:23:34;;;;;;;14.13;6.88;;;1.70;80.50;;;;;;5012727;28;20178;-75
2023/01/28 01:26:00;;;;;;;13.23;6.20;;;1.80;80.50;;;;;;5013127;28;20186;-75
2023/01/28 01:28:27;;;;;;;12.93;6.18;;;1.80;80.30;;;;;;5015933;28;20636;-74
2023/01/28 01:31:02;;;;;;;14.75;6.50;;;1.80;80.20;;;;;;5017018;28;20606;-73
2023/01/28 01:33:28;;;;;;;13.25;5.75;;;1.80;80.20;;;;;;5019164;28;20209;-74
2023/01/28 01:35:54;;;;;;;14.95;6.00;;;1.80;80.50;;;;;;5020850;28;20350;-74
2023/01/28 01:38:20;;;;;;;14.15;6.65;;;1.80;80.60;;;;;;5016045;28;20316;-73
2023/01/28 01:40:46;;;;;;;12.30;6.10;;;1.90;80.60;;;;;;5015444;28;20304;-76
2023/01/28 01:43:17;;;;;;;12.17;6.10;;;1.90;80.30;;;;;;5018169;28;20181;-74
2023/01/28 01:45:46;;;;;;;14.10;6.55;;;1.90;80.00;;;;;;5019436;28;20676;-74
2023/01/28 01:48:21;;;;;;;10.57;5.50;;;1.90;80.20;;;;;;5027452;28;20192;-76
2023/01/28 01:51:05;;;;;;;12.38;5.75;;;1.90;80.00;;;;;;5004036;28;20722;-76
2023/01/28 01:53:31;;;;;;;11.85;6.00;;;1.90;79.70;;;;;;5016036;28;20193;-73
2023/01/28 01:56:03;;;;;;;10.68;5.85;;;1.80;80.20;;;;;;5021175;28;20653;-75
2023/01/28 01:58:32;;;;;;;11.90;6.25;;;1.70;80.50;;;;;;5023278;28;20209;-77
2023/01/28 02:00:58;;;;;;;12.75;5.80;;;1.70;80.80;;;;;;5024562;28;20210;-75
2023/01/28 02:03:32;;;;;;;10.83;5.50;;;1.80;80.80;;;;;;5027940;28;20195;-75
2023/01/28 02:05:58;;;;;;;12.90;5.97;;;1.70;80.80;;;;;;5021836;28;20809;-75
2023/01/28 02:08:24;;;;;;;10.00;5.53;;;1.80;81.10;;;;;;5017582;28;20230;-73
2023/01/28 02:11:04;;;;;;;11.95;6.03;;;1.80;80.90;;;;;;5021722;28;20240;-74
2023/01/28 02:13:35;;;;;;;13.68;6.00;;;1.80;80.90;;;;;;5024100;28;20178;-74
2023/01/28 02:16:02;;;;;;;8.80;5.15;;;1.80;80.80;;;;;;5018187;28;20252;-76
2023/01/28 02:18:27;;;;;;;13.45;6.78;;;1.80;80.60;;;;;;5020210;28;20189;-75
2023/01/28 02:21:31;;;;;;;14.03;5.77;;;1.70;80.90;;;;;;5017464;28;20213;-75
2023/01/28 02:24:27;;;;;;;9.43;5.25;;;1.80;81.20;;;;;;5023511;28;20276;-76
2023/01/28 02:27:19;;;;;;;11.75;5.95;;;1.80;81.20;;;;;;5013645;28;21566;-77
2023/01/28 02:30:14;;;;;;;11.73;6.10;;;1.80;81.20;;;;;;5010660;28;20253;-77
2023/01/28 02:32:50;;;;;;;10.05;6.60;;;1.80;81.10;;;;;;5017586;28;20178;-75
2023/01/28 02:35:34;;;;;;;9.60;5.80;;;1.80;81.20;;;;;;5015981;28;20212;-74
2023/01/28 02:38:15;;;;;;;12.27;5.10;;;1.80;81.40;;;;;;5011329;28;20232;-75
2023/01/28 02:41:04;;;;;;;11.93;6.10;;;1.80;81.50;;;;;;5010685;28;20308;-76
2023/01/28 02:43:41;;;;;;;11.02;5.85;;;1.80;81.40;;;;;;5014667;28;20170;-76
2023/01/28 02:49:26;;;;;;;10.40;4.80;;;1.90;81.40;;;;;;5011394;28;20188;-75
2023/01/28 02:52:17;;;;;;;11.02;5.90;;;1.90;81.10;;;;;;5008346;28;20185;-76
2023/01/28 02:54:42;;;;;;;9.80;4.72;;;1.80;81.10;;;;;;5019151;28;20204;-77
2023/01/28 02:57:22;;;;;;;9.53;5.20;;;1.90;81.20;;;;;;5013409;28;20213;-76
2023/01/28 03:00:17;;;;;;;9.63;5.18;;;1.90;81.20;;;;;;5005137;28;20368;-76
2023/01/28 03:03:15;;;;;;;8.52;4.57;;;1.80;81.20;;;;;;5014139;28;20178;-75
2023/01/28 03:06:02;;;;;;;12.25;6.00;;;1.90;81.40;;;;;;4962339;28;20187;-76
2023/01/28 03:36:55;;;;;;;14.98;7.68;;;1.60;84.60;;;;;;4970282;28;20217;-75
2023/01/28 03:39:28;;;;;;;13.60;8.13;;;1.50;85.20;;;;;;4968102;28;20238;-76
2023/01/28 03:42:07;;;;;;;14.45;6.93;;;1.50;85.70;;;;;;4988487;28;20872;-76
2023/01/28 03:44:51;;;;;;;13.73;7.53;;;1.60;85.70;;;;;;5010982;28;20691;-75
2023/01/28 03:47:27;;;;;;;17.83;8.02;;;1.60;85.90;;;;;;5016814;28;20182;-76
2023/01/28 03:49:55;;;;;;;15.45;7.20;;;1.60;85.70;;;;;;5015336;28;20267;-76
2023/01/28 03:52:27;;;;;;;17.52;7.13;;;1.60;85.90;;;;;;5015785;28;20542;-77
2023/01/28 03:54:53;;;;;;;12.88;6.63;;;1.60;86.00;;;;;;5020956;28;20188;-79
2023/01/28 03:57:24;;;;;;;13.23;7.37;;;1.60;86.00;;;;;;5019021;28;20190;-77
2023/01/28 03:59:51;;;;;;;15.13;7.75;;;1.60;86.20;;;;;;5018340;28;20205;-76
2023/01/28 04:02:18;;;;;;;13.82;7.65;;;1.60;86.20;;;;;;5016345;28;20209;-77
2023/01/28 04:04:44;;;;;;;16.70;7.70;;;1.70;86.30;;;;;;5022496;28;20178;-76
2023/01/28 04:07:13;;;;;;;17.43;8.43;;;1.60;86.20;;;;;;5022298;28;20196;-75
2023/01/28 04:09:38;;;;;;;18.33;8.10;;;1.50;86.50;;;;;;5017932;28;20236;-75
2023/01/28 04:12:04;;;;;;;15.43;7.63;;;1.50;86.60;;;;;;5014538;28;20268;-77
2023/01/28 04:14:31;;;;;;;15.73;7.90;;;1.50;86.90;;;;;;5016683;28;20182;-76
2023/01/28 04:16:56;;;;;;;15.05;8.15;;;1.50;86.90;;;;;;5017288;28;20190;-77
2023/01/28 04:19:23;;;;;;;14.73;7.77;;;1.50;86.80;;;;;;5014603;28;20601;-76
2023/01/28 04:21:49;;;;;;;19.35;9.15;;;1.40;87.00;;;;;;5013244;28;20928;-77
2023/01/28 04:24:15;;;;;;;18.60;9.43;;;1.50;87.30;;;;;;5019372;28;20210;-76
2023/01/28 04:26:41;;;;;;;16.38;8.05;;;1.50;87.10;;;;;;5023451;28;20448;-76
2023/01/28 04:29:07;;;;;;;17.33;8.90;;;1.60;87.10;;;;;;5023396;28;20649;-75
2023/01/28 04:31:33;;;;;;;16.83;9.00;;;1.60;87.10;;;;;;5022250;28;20444;-74
2023/01/28 04:33:59;;;;;;;17.38;9.38;;;1.60;87.00;;;;;;5017310;28;20189;-73
2023/01/28 04:36:25;;;;;;;18.05;9.15;;;1.60;87.00;;;;;;5025090;28;20253;-75
2023/01/28 04:38:51;;;;;;;17.23;8.43;;;1.60;87.00;;;;;;5017115;28;20213;-76
2023/01/28 04:41:17;;;;;;;18.05;9.20;;;1.60;87.10;;;;;;5015599;28;20372;-76
2023/01/28 04:43:43;;;;;;;17.87;9.50;;;1.60;87.00;;;;;;5032432;28;20205;-74
2023/01/28 04:46:09;;;;;;;17.90;9.00;;;1.50;87.00;;;;;;5026340;28;20205;-76
2023/01/28 04:48:35;;;;;;;14.88;8.65;;;1.50;87.10;;;;;;5015168;28;20213;-78
2023/01/28 04:51:02;;;;;;;20.85;10.13;;;1.50;87.30;;;;;;5019164;28;20297;-77
2023/01/28 04:53:27;;;;;;;18.38;9.48;;;1.50;87.30;;;;;;5014867;28;20177;-76
2023/01/28 04:55:53;;;;;;;16.17;9.23;;;1.60;87.40;;;;;;5020097;28;20185;-76
2023/01/28 04:58:18;;;;;;;17.63;8.87;;;1.60;87.30;;;;;;5022415;28;20201;-77
2023/01/28 05:00:44;;;;;;;18.33;8.50;;;1.70;87.10;;;;;;5011020;28;20279;-75
2023/01/28 05:03:09;;;;;;;18.20;9.60;;;1.70;87.10;;;;;;5019767;28;20181;-76
2023/01/28 05:05:35;;;;;;;18.50;9.10;;;1.60;87.10;;;;;;5017618;28;20243;-75
2023/01/28 05:08:01;;;;;;;16.47;9.17;;;1.60;87.40;;;;;;5017377;28;20707;-74
2023/01/28 05:10:27;;;;;;;20.87;10.00;;;1.60;87.60;;;;;;5011969;28;20217;-76
2023/01/28 05:12:52;;;;;;;16.47;9.13;;;1.60;87.60;;;;;;5016655;28;20209;-74
2023/01/28 05:15:19;;;;;;;17.83;9.37;;;1.60;87.70;;;;;;5015986;28;20416;-78
2023/01/28 05:17:45;;;;;;;17.70;8.55;;;1.70;87.70;;;;;;5015342;28;20421;-77
2023/01/28 05:20:12;;;;;;;15.13;8.45;;;1.70;87.70;;;;;;5013434;28;20573;-77
2023/01/28 05:22:39;;;;;;;18.65;10.10;;;1.70;87.70;;;;;;5017264;28;20690;-76
2023/01/28 05:25:05;;;;;;;14.93;8.48;;;1.70;87.60;;;;;;5020873;28;20269;-76
2023/01/28 05:27:31;;;;;;;17.23;8.93;;;1.60;87.70;;;;;;5024568;28;20178;-76
2023/01/28 05:29:57;;;;;;;20.17;9.55;;;1.60;87.80;;;;;;5014359;28;20202;-76
2023/01/28 05:32:23;;;;;;;18.52;9.20;;;1.60;88.10;;;;;;5019149;28;20660;-77
2023/01/28 05:34:49;;;;;;;17.07;8.93;;;1.60;88.10;;;;;;5023103;28;20197;-75
2023/01/28 05:37:15;;;;;;;15.53;8.90;;;1.70;88.40;;;;;;5026446;28;20429;-77
2023/01/28 05:39:40;;;;;;;18.37;9.37;;;1.70;88.40;;;;;;5011059;28;20242;-77
2023/01/28 05:42:06;;;;;;;21.03;9.83;;;1.70;88.30;;;;;;5019313;28;20201;-76
2023/01/28 05:44:31;;;;;;;16.57;8.50;;;1.80;88.30;;;;;;5019773;28;20649;-76
2023/01/28 05:46:57;;;;;;;17.67;9.43;;;1.80;88.10;;;;;;5017995;28;20182;-76
2023/01/28 05:49:25;;;;;;;18.00;9.37;;;1.90;87.70;;;;;;5015436;28;20254;-76
2023/01/28 05:51:51;;;;;;;23.42;10.02;;;1.90;87.40;;;;;;5010479;28;20581;-77
2023/01/28 05:54:17;;;;;;;14.73;8.43;;;1.90;87.40;;;;;;5019748;28;20246;-75
2023/01/28 05:56:42;;;;;;;15.63;8.70;;;1.90;87.10;;;;;;5011250;28;20425;-76
2023/01/28 05:59:10;;;;;;;15.60;9.63;;;1.90;87.10;;;;;;5010925;28;20557;-77
2023/01/28 06:01:36;;;;;;;18.92;9.70;;;1.90;87.00;;;;;;5013633;28;20222;-76
2023/01/28 06:04:02;;;;;;;19.00;9.93;;;1.90;87.10;;;;;;5013994;28;20536;-78
2023/01/28 06:06:28;;;;;;;18.75;10.38;;;1.90;87.30;;;;;;5019548;28;20178;-75
2023/01/28 06:08:54;;;;;;;18.10;8.70;;;1.90;87.40;;;;;;5014439;28;20182;-76
2023/01/28 06:11:20;;;;;;;14.80;9.00;;;1.90;87.30;;;;;;5019620;28;20211;-76
2023/01/28 06:13:45;;;;;;;20.60;9.75;;;1.90;87.10;;;;;;5013701;28;20186;-76
2023/01/28 06:16:11;;;;;;;22.07;8.73;;;1.90;87.10;;;;;;5023885;28;20551;-76
2023/01/28 06:18:37;;;;;;;18.67;9.07;;;1.90;87.10;;;;;;5014107;28;20186;-76
2023/01/28 06:21:02;;;;;;;18.37;8.70;;;1.90;87.00;;;;;;5011332;28;20217;-76
2023/01/28 06:23:28;;;;;;;21.93;9.20;;;2.00;87.00;;;;;;5015592;28;20236;-76
2023/01/28 06:25:56;;;;;;;15.67;8.77;;;2.00;87.00;;;;;;5014022;28;20208;-76
2023/01/28 06:28:23;;;;;;;19.35;9.93;;;2.00;86.90;;;;;;5016550;28;20237;-74
2023/01/28 06:30:51;;;;;;;23.55;10.75;;;2.00;86.60;;;;;;5020193;28;20300;-77
2023/01/28 06:33:18;;;;;;;18.35;9.50;;;1.90;86.60;;;;;;5016349;28;20190;-75
2023/01/28 06:35:44;;;;;;;21.77;10.73;;;1.90;86.80;;;;;;5020904;28;20182;-75
2023/01/28 06:38:11;;;;;;;18.77;9.02;;;1.90;86.90;;;;;;5018913;28;20232;-76
2023/01/28 06:40:36;;;;;;;19.50;10.05;;;1.90;87.00;;;;;;5015761;28;20219;-74
2023/01/28 06:43:02;;;;;;;19.27;9.07;;;1.90;87.10;;;;;;5021474;28;20185;-75
2023/01/28 06:45:28;;;;;;;16.83;9.00;;;2.00;87.00;;;;;;5013113;28;20182;-77
2023/01/28 06:47:54;;;;;;;20.40;9.60;;;2.00;86.90;;;;;;5012969;28;20182;-76
2023/01/28 06:50:19;;;;;;;20.47;10.23;;;2.00;86.90;;;;;;5011262;28;20201;-74
2023/01/28 06:52:45;;;;;;;17.57;9.10;;;2.00;86.60;;;;;;5015084;28;20185;-76
2023/01/28 06:55:11;;;;;;;15.63;8.63;;;2.00;86.60;;;;;;5017115;28;20192;-77
2023/01/28 06:57:38;;;;;;;19.27;10.97;;;2.10;86.60;;;;;;5013428;28;20239;-77
2023/01/28 07:00:05;;;;;;;16.63;9.18;;;2.00;86.50;;;;;;5009890;28;20297;-76
2023/01/28 07:02:31;;;;;;;19.27;9.50;;;2.00;86.50;;;;;;5009132;28;20276;-76
2023/01/28 07:04:56;;;;;;;17.83;9.10;;;2.00;86.50;;;;;;5016922;28;20697;-77
2023/01/28 07:07:22;;;;;;;21.43;9.97;;;2.00;86.60;;;;;;5014112;28;20186;-76
2023/01/28 07:09:48;;;;;;;25.87;10.20;;;1.90;86.50;;;;;;5008555;28;20210;-76
2023/01/28 07:12:13;;;;;;;22.60;9.67;;;1.90;86.80;;;;;;5014582;28;20198;-76
2023/01/28 07:14:39;;;;;;;16.90;9.23;;;1.90;86.90;;;;;;5018344;28;20178;-76
2023/01/28 07:17:04;;;;;;;18.57;9.23;;;2.00;87.10;;;;;;5017010;28;20182;-76
2023/01/28 07:19:30;;;;;;;19.97;9.73;;;2.00;87.10;;;;;;5016713;28;20328;-75
2023/01/28 07:21:59;;;;;;;24.00;10.50;;;2.00;87.00;;;;;;5016714;28;20214;-77
2023/01/28 07:24:25;;;;;;;17.58;9.20;;;2.00;87.00;;;;;;5022325;28;20184;-77
2023/01/28 07:26:50;;;;;;;20.27;9.40;;;2.10;87.00;;;;;;5015773;28;20185;-77
2023/01/28 07:29:16;;;;;;;22.90;10.07;;;2.10;87.00;;;;;;5024869;28;20185;-76
2023/01/28 07:31:41;;;;;;;20.83;9.80;;;2.10;86.90;;;;;;5018360;28;20177;-77
2023/01/28 07:34:08;;;;;;;18.83;9.57;;;2.10;86.80;;;;;;5022839;28;20252;-76
2023/01/28 07:36:34;;;;;;;18.33;9.77;;;2.10;86.80;;;;;;5022985;28;20196;-76
2023/01/28 07:38:59;;;;;;;20.83;9.27;;;2.10;87.00;;;;;;5019335;28;20208;-76
2023/01/28 07:41:25;;;;;;;18.30;10.17;;;2.10;87.00;;;;;;5013771;28;20221;-76
2023/01/28 07:43:50;;;;;;;21.77;11.60;;;2.10;87.00;;;;;;5012224;28;20188;-76
2023/01/28 07:46:16;;;;;;;21.60;10.20;;;2.10;87.00;;;;;;5011966;28;20269;-76
2023/01/28 07:48:42;;;;;;;20.90;9.70;;;2.10;87.10;;;;;;5012298;28;20174;-76
2023/01/28 07:51:07;;;;;;;18.20;10.10;;;2.20;87.10;;;;;;5009615;28;20704;-77
2023/01/28 07:53:33;;;;;;;22.73;10.23;;;2.20;87.00;;;;;;5011163;28;20788;-77
2023/01/28 07:56:00;;;;;;;20.63;10.83;;;2.30;86.90;;;;;;5019848;28;20674;-75
2023/01/28 07:58:26;;;;;;;19.33;9.95;;;2.30;86.80;;;;;;5013539;28;20229;-77
2023/01/28 08:00:57;;;;;;;20.40;9.03;;;2.30;86.60;;;;;;5004205;28;20303;-76
2023/01/28 08:03:22;;;;;;;22.15;9.98;;;2.30;86.50;;;;;;5016929;28;20201;-76
2023/01/28 08:05:51;;;;;;;19.63;9.93;;;2.30;86.50;;;;;;5021979;28;21519;-76
2023/01/28 08:08:17;;;;;;;18.30;9.65;;;2.20;86.60;;;;;;5013673;28;20177;-75
2023/01/28 08:10:43;;;;;;;21.67;10.07;;;2.20;86.90;;;;;;5001596;28;20232;-76
2023/01/28 08:13:10;;;;;;;20.60;9.82;;;2.20;87.00;;;;;;5017569;28;20189;-77
2023/01/28 08:15:36;;;;;;;17.85;9.50;;;2.30;86.80;;;;;;5016921;28;20678;-76
2023/01/28 08:18:03;;;;;;;18.17;10.00;;;2.30;86.80;;;;;;5011191;28;20276;-76
2023/01/28 08:20:29;;;;;;;18.60;9.65;;;2.40;86.90;;;;;;5008751;28;20205;-75
2023/01/28 08:23:29;;;;;;;23.65;11.55;;;2.40;86.80;;;;;;5011300;28;20189;-75
2023/01/28 08:25:57;;;;;;;26.23;10.73;;;2.40;86.50;;;;;;4986528;28;20195;-76
2023/01/28 08:28:23;;;;;;;21.65;9.98;;;2.40;86.50;;;;;;4986116;28;20196;-75
2023/01/28 08:30:49;;;;;;;21.13;10.30;;;2.40;86.50;;;;;;4973836;28;20222;-76
2023/01/28 08:33:16;;;;;;;19.87;10.00;;;2.50;86.30;;;;;;4994176;28;20690;-76
2023/01/28 08:35:42;;;;;;;23.23;11.80;;;2.50;86.30;;;;;;4990913;28;20249;-76
2023/01/28 08:38:09;;;;;;;21.03;10.20;;;2.50;86.20;;;;;;4972830;28;20212;-76
2023/01/28 08:40:35;;;;;;;21.33;10.68;;;2.50;86.20;;;;;;4988396;28;21035;-76
2023/01/28 08:43:01;;;;;;;23.98;10.88;;;2.40;86.20;;;;;;4990816;28;20285;-77
2023/01/28 08:45:27;;;;;;;19.57;10.73;;;2.30;86.30;;;;;;4995670;28;20202;-76
2023/01/28 08:47:56;;;;;;;27.92;11.05;;;2.30;86.60;;;;;;4995863;28;20513;-76
2023/01/28 08:50:23;;;;;;;21.52;10.85;;;2.40;86.80;;;;;;4994403;28;20225;-76
2023/01/28 08:52:55;;;;;;;24.05;10.90;;;2.50;86.80;;;;;;4991794;28;20186;-77
2023/01/28 08:55:20;;;;;;;20.20;10.20;;;2.60;86.20;;;;;;4998267;28;20713;-76
2023/01/28 08:57:46;;;;;;;22.70;11.80;;;2.60;85.70;;;;;;4990880;28;20219;-76
2023/01/28 09:00:12;;;;;;;24.50;12.20;;;2.70;85.50;;;;;;4981797;28;20467;-76
2023/01/28 09:02:38;;;;;;;24.98;12.20;;;2.70;84.70;;;;;;5009691;28;20229;-77
2023/01/28 09:05:05;;;;;;;25.60;12.23;;;2.60;84.30;;;;;;5023528;28;20181;-76
2023/01/28 09:07:31;;;;;;;25.02;10.60;;;2.60;84.70;;;;;;5017717;28;20256;-76
2023/01/28 09:09:56;;;;;;;25.13;11.50;;;2.60;84.60;;;;;;5021341;28;20706;-77
2023/01/28 09:12:22;;;;;;;26.37;10.53;;;2.60;85.00;;;;;;5022548;28;20420;-77
2023/01/28 09:14:48;;;;;;;25.53;10.80;;;2.60;85.00;;;;;;5020726;28;20297;-76
2023/01/28 09:17:14;;;;;;;28.50;11.70;;;2.70;84.90;;;;;;5016008;28;21201;-76
2023/01/28 09:19:39;;;;;;;21.87;11.00;;;2.80;84.60;;;;;;5017320;28;20218;-77
2023/01/28 09:22:05;;;;;;;23.37;11.73;;;2.90;84.00;;;;;;5012097;28;20209;-75
2023/01/28 09:24:30;;;;;;;22.40;11.83;;;3.00;83.40;;;;;;5018372;28;20261;-77
2023/01/28 09:26:56;;;;;;;25.00;11.70;;;3.00;82.80;;;;;;5021236;28;20178;-76
2023/01/28 09:29:21;;;;;;;21.97;10.33;;;3.00;82.70;;;;;;5012204;28;20266;-76
2023/01/28 09:31:47;;;;;;;28.63;11.83;;;3.10;82.70;;;;;;5011142;28;20181;-76
2023/01/28 09:34:13;;;;;;;26.83;12.07;;;2.90;82.40;;;;;;5012151;28;20190;-76
2023/01/28 09:36:38;;;;;;;22.60;11.70;;;3.00;82.70;;;;;;5016584;28;20178;-76
2023/01/28 09:39:04;;;;;;;25.67;11.10;;;2.90;82.80;;;;;;5024297;28;20244;-76
2023/01/28 09:41:54;;;;;;;26.33;12.23;;;2.90;83.10;;;;;;5021709;28;20684;-76
2023/01/28 09:44:34;;;;;;;23.98;12.05;;;2.90;83.10;;;;;;5033783;28;20181;-75
2023/01/28 09:47:04;;;;;;;24.42;11.32;;;2.90;83.10;;;;;;5025557;28;20178;-75
2023/01/28 09:49:47;;;;;;;26.30;12.05;;;3.00;83.00;;;;;;5025249;28;20208;-75
2023/01/28 09:52:16;;;;;;;26.55;12.48;;;3.00;83.00;;;;;;5020256;28;20185;-76
2023/01/28 09:55:12;;;;;;;22.00;10.80;;;3.00;82.50;;;;;;5026505;28;20201;-76
2023/01/28 09:57:47;;;;;;;23.23;11.73;;;3.00;82.70;;;;;;5030408;28;20223;-76
2023/01/28 10:00:19;;;;;;;22.13;11.00;;;3.00;82.70;;;;;;5015508;28;20213;-75
2023/01/28 10:03:12;;;;;;;27.63;11.88;;;3.00;82.50;;;;;;5021709;28;20194;-76
2023/01/28 10:05:56;;;;;;;27.83;11.60;;;3.00;82.50;;;;;;5015988;28;20169;-77
2023/01/28 10:08:37;;;;;;;26.80;12.23;;;3.10;82.50;;;;;;5017908;28;20178;-77
2023/01/28 10:11:09;;;;;;;28.90;12.32;;;3.00;82.20;;;;;;5007924;28;20263;-76
2023/01/28 10:13:47;;;;;;;30.25;14.07;;;3.00;82.10;;;;;;5010788;28;20189;-77
2023/01/28 10:16:30;;;;;;;24.23;11.50;;;2.90;82.50;;;;;;5022222;28;20193;-76
2023/01/28 10:19:26;;;;;;;27.63;12.10;;;2.80;82.10;;;;;;5022550;28;20766;-78
2023/01/28 10:22:08;;;;;;;26.20;10.85;;;2.80;82.70;;;;;;5019857;28;20576;-77
2023/01/28 10:24:37;;;;;;;26.30;12.23;;;2.80;82.80;;;;;;5009427;28;20261;-77
2023/01/28 10:27:18;;;;;;;32.95;13.07;;;2.80;83.10;;;;;;5024570;28;20191;-75
2023/01/28 10:29:45;;;;;;;26.20;11.93;;;2.70;82.40;;;;;;5007385;28;20198;-76
2023/01/28 10:32:28;;;;;;;29.27;11.52;;;2.60;82.80;;;;;;5018676;28;20776;-76
2023/01/28 10:34:55;;;;;;;28.10;11.82;;;2.60;82.70;;;;;;5025916;28;20666;-76
2023/01/28 10:37:20;;;;;;;23.85;11.75;;;2.60;83.00;;;;;;5020642;28;20722;-77
2023/01/28 10:39:46;;;;;;;29.00;13.00;;;2.70;83.30;;;;;;5009988;28;20214;-76
2023/01/28 10:42:16;;;;;;;27.40;12.33;;;2.80;83.00;;;;;;5013663;28;20198;-78
2023/01/28 10:44:44;;;;;;;27.88;13.00;;;2.70;83.10;;;;;;5017052;28;20840;-77
2023/01/28 10:47:15;;;;;;;25.10;12.40;;;2.70;82.80;;;;;;5016276;28;20182;-77
2023/01/28 10:49:50;;;;;;;27.40;11.25;;;2.70;83.00;;;;;;5009595;28;20198;-77
2023/01/28 10:52:17;;;;;;;27.73;12.98;;;2.70;82.70;;;;;;5019201;28;20284;-77
2023/01/28 10:54:43;;;;;;;27.87;11.57;;;2.70;82.80;;;;;;5019959;28;20179;-75
2023/01/28 10:57:13;;;;;;;26.57;12.60;;;2.80;83.00;;;;;;5016098;28;20478;-78
2023/01/28 10:59:40;;;;;;;27.33;11.30;;;3.00;82.70;;;;;;5017858;28;20231;-77
2023/01/28 11:02:31;;;;;;;27.93;12.10;;;3.00;82.50;;;;;;5018007;28;20201;-76
2023/01/28 11:05:35;;;;;;;27.88;11.98;;;2.90;82.70;;;;;;5014167;28;20424;-77
2023/01/28 11:08:15;;;;;;;25.90;11.88;;;3.00;83.10;;;;;;5007910;28;20221;-77
2023/01/28 11:10:42;;;;;;;30.38;12.70;;;2.90;82.70;;;;;;5004011;28;20293;-77
2023/01/28 11:13:20;;;;;;;33.63;12.77;;;2.90;83.10;;;;;;4994115;28;20186;-77
2023/01/28 11:15:51;;;;;;;26.08;12.05;;;3.00;83.30;;;;;;5008445;28;20186;-77
2023/01/28 11:18:23;;;;;;;29.88;12.98;;;3.10;83.00;;;;;;5001367;28;20227;-77
2023/01/28 11:20:53;;;;;;;24.13;10.82;;;3.10;82.50;;;;;;4996487;28;20737;-76
2023/01/28 11:23:23;;;;;;;32.40;13.52;;;3.10;81.50;;;;;;5006764;28;20197;-77
2023/01/28 11:26:03;;;;;;;29.77;11.70;;;3.10;81.70;;;;;;5001127;28;20226;-77
2023/01/28 11:28:30;;;;;;;25.95;11.73;;;3.20;81.80;;;;;;5007984;28;20421;-76
2023/01/28 11:30:58;;;;;;;31.83;13.27;;;3.30;81.70;;;;;;5015196;28;20213;-74
2023/01/28 11:33:38;;;;;;;25.13;11.10;;;3.30;81.40;;;;;;5006591;28;20465;-77
2023/01/28 11:36:34;;;;;;;24.45;10.95;;;3.30;81.10;;;;;;4998278;28;20253;-77
2023/01/28 11:39:14;;;;;;;26.38;12.75;;;3.30;81.20;;;;;;4950008;28;20243;-76
2023/01/28 11:41:39;;;;;;;31.23;12.95;;;3.20;81.90;;;;;;4953259;28;20262;-76
2023/01/28 11:44:23;;;;;;;34.97;13.40;;;3.20;82.10;;;;;;4968634;28;20190;-76
2023/01/28 11:47:16;;;;;;;27.40;12.70;;;3.20;81.90;;;;;;4957567;28;20215;-76
2023/01/28 11:50:24;;;;;;;27.70;13.05;;;3.00;81.80;;;;;;4979730;28;20219;-77
2023/01/28 11:53:07;;;;;;;22.98;11.52;;;3.00;82.10;;;;;;4954373;28;20659;-76
2023/01/28 11:55:50;;;;;;;28.73;13.00;;;2.90;82.10;;;;;;4958336;28;20199;-77
2023/01/28 11:58:22;;;;;;;22.90;12.30;;;3.00;81.90;;;;;;4953011;28;20318;-76
2023/01/28 12:00:58;;;;;;;23.63;11.68;;;3.00;81.70;;;;;;4954779;28;20297;-77
2023/01/28 12:03:26;;;;;;;25.48;12.32;;;3.00;81.10;;;;;;4961672;28;20193;-77
2023/01/28 12:06:18;;;;;;;41.00;13.13;;;2.90;81.10;;;;;;4962335;28;20239;-76
2023/01/28 12:09:28;;;;;;;27.15;11.45;;;3.00;81.10;;;;;;4929085;29;20459;-75
2023/01/28 12:12:16;;;;;;;27.80;12.27;;;3.00;81.20;;;;;;4939549;29;20627;-75
2023/01/28 12:15:15;;;;;;;26.83;11.75;;;3.00;81.20;;;;;;4961513;28;20666;-77
2023/01/28 12:17:52;;;;;;;29.77;12.23;;;3.10;81.20;;;;;;4977910;28;20277;-77
2023/01/28 12:20:38;;;;;;;31.48;13.75;;;3.00;81.10;;;;;;4995452;28;21062;-77
2023/01/28 12:23:26;;;;;;;29.45;13.15;;;2.90;81.40;;;;;;5000036;28;20726;-77
2023/01/28 12:26:10;;;;;;;30.88;13.55;;;2.80;81.70;;;;;;4996847;28;20225;-78
2023/01/28 12:28:53;;;;;;;27.45;12.23;;;2.90;81.80;;;;;;4998185;28;20289;-78
2023/01/28 12:31:46;;;;;;;29.92;11.95;;;2.80;81.40;;;;;;5008542;28;20214;-77
2023/01/28 12:34:43;;;;;;;27.67;12.02;;;2.70;82.20;;;;;;5014558;28;20181;-77
2023/01/28 12:37:39;;;;;;;32.42;11.85;;;2.70;82.70;;;;;;5027109;28;20181;-77
2023/01/28 12:40:20;;;;;;;30.75;12.77;;;2.80;82.70;;;;;;5014811;28;20205;-78
2023/01/28 12:42:52;;;;;;;25.02;13.00;;;2.70;82.40;;;;;;5014955;28;20236;-76
2023/01/28 12:45:20;;;;;;;31.90;13.85;;;2.80;83.00;;;;;;5013123;28;20240;-78
2023/01/28 12:47:59;;;;;;;27.63;12.15;;;2.90;82.70;;;;;;5014885;28;20269;-77
2023/01/28 12:50:36;;;;;;;22.07;10.37;;;2.90;82.10;;;;;;5010009;28;20785;-77
2023/01/28 12:53:23;;;;;;;31.75;12.65;;;2.80;82.20;;;;;;5023982;28;20425;-77
2023/01/28 12:55:59;;;;;;;25.57;11.37;;;2.80;83.00;;;;;;5031487;28;20197;-78
2023/01/28 12:58:40;;;;;;;34.63;13.03;;;2.90;82.70;;;;;;5027642;28;20447;-77
2023/01/28 13:01:11;;;;;;;30.15;12.77;;;3.00;82.50;;;;;;5024828;28;20471;-77
2023/01/28 13:03:47;;;;;;;23.95;11.27;;;3.00;82.10;;;;;;5038351;28;20177;-76
2023/01/28 13:06:39;;;;;;;31.40;11.82;;;2.90;82.10;;;;;;5026157;28;20185;-77
2023/01/28 13:09:20;;;;;;;21.45;8.98;;;2.90;82.50;;;;;;5024576;28;20213;-77
2023/01/28 13:11:48;;;;;;;25.77;10.82;;;2.90;82.80;;;;;;5021927;28;20186;-77
2023/01/28 13:14:15;;;;;;;19.70;9.38;;;2.80;83.30;;;;;;5019864;28;20196;-77
2023/01/28 13:16:41;;;;;;;18.20;9.32;;;2.90;83.30;;;;;;5015987;28;20208;-78
2023/01/28 13:19:21;;;;;;;22.00;10.93;;;3.00;83.10;;;;;;5015046;28;20633;-77
2023/01/28 13:21:48;;;;;;;21.50;9.27;;;3.00;83.70;;;;;;5018814;28;20236;-77
2023/01/28 13:24:14;;;;;;;22.10;8.90;;;3.00;84.30;;;;;;5018093;28;20196;-77
2023/01/28 13:26:44;;;;;;;18.73;8.10;;;2.90;84.70;;;;;;5018528;28;20170;-77
2023/01/28 13:29:21;;;;;;;11.10;7.43;;;2.90;85.20;;;;;;5018532;28;20193;-78
2023/01/28 13:31:49;;;;;;;20.70;8.30;;;2.80;85.50;;;;;;5014992;28;20681;-76
2023/01/28 13:34:32;;;;;;;19.77;9.77;;;2.80;85.90;;;;;;5021487;28;20276;-76